Time;durP1;ratioP1;P1;durP2;ratioP2;P2;SDS_P1;SDS_P2;PMS_P1;PMS_P2;Temp;Humidity;BMP_temperature;BMP_pressure;BME280_temperature;BME280_humidity;BME280_pressure;Samples;Min_cycle;Max_cycle;Signal;HPM_P1;HPM_P2
2021/03/06 00:00:09;;;;;;;;;;;;;;;-2.89;97.20;99763.77;1685307;85;20143;-73
2021/03/06 00:02:36;;;;;;;;;;;;;;;-2.87;96.84;99766.22;1685290;85;20171;-73
2021/03/06 00:05:05;;;;;;;;;;;;;;;-2.92;97.89;99759.31;1685449;85;20528;-73
2021/03/06 00:07:35;;;;;;;;;;;;;;;-2.95;97.10;99763.09;1685186;85;20158;-73
2021/03/06 00:10:05;;;;;;;;;;;;;;;-2.94;98.04;99757.33;1685365;85;20905;-73
2021/03/06 00:12:34;;;;;;;;;;;;;;;-2.97;98.29;99761.60;1685317;85;20222;-73
2021/03/06 00:15:02;;;;;;;;;;;;;;;-3.01;98.79;99759.80;1685310;85;20159;-73
2021/03/06 00:17:31;;;;;;;;;;;;;;;-2.96;96.75;99762.77;1685396;85;20118;-73
2021/03/06 00:19:59;;;;;;;;;;;;;;;-2.92;97.37;99764.06;1685343;85;21833;-73
2021/03/06 00:22:27;;;;;;;;;;;;;;;-2.94;96.26;99770.47;1685051;85;20147;-73
2021/03/06 00:24:56;;;;;;;;;;;;;;;-2.93;97.39;99765.06;1685297;85;20122;-73
2021/03/06 00:27:24;;;;;;;;;;;;;;;-2.94;97.91;99767.84;1685323;85;20209;-73
2021/03/06 00:29:52;;;;;;;;;;;;;;;-2.94;97.79;99767.38;1685330;85;20119;-73
2021/03/06 00:32:20;;;;;;;;;;;;;;;-2.99;95.58;99767.00;1685335;85;21817;-73
2021/03/06 00:34:48;;;;;;;;;;;;;;;-2.96;96.21;99763.23;1685351;85;20608;-73
2021/03/06 00:37:16;;;;;;;;;;;;;;;-2.96;96.50;99764.55;1685260;85;20150;-73
2021/03/06 00:39:43;;;;;;;;;;;;;;;-2.95;94.75;99766.21;1685412;85;20317;-73
2021/03/06 00:42:12;;;;;;;;;;;;;;;-2.94;95.79;99767.84;1659828;85;20183;-73
2021/03/06 00:44:42;;;;;;;;;;;;;;;-2.99;95.81;99763.06;1685251;84;20166;-73
2021/03/06 00:47:09;;;;;;;;;;;;;;;-3.09;96.08;99767.64;1685312;85;20204;-72
2021/03/06 00:49:38;;;;;;;;;;;;;;;-3.21;96.82;99767.11;1685258;84;20518;-73
2021/03/06 00:52:07;;;;;;;;;;;;;;;-3.25;97.91;99770.56;1685229;85;20169;-73
2021/03/06 00:54:35;;;;;;;;;;;;;;;-3.33;97.91;99767.91;1675004;85;20234;-73
2021/03/06 00:57:03;;;;;;;;;;;;;;;-3.39;98.11;99769.03;1678682;85;21886;-73
2021/03/06 00:59:31;;;;;;;;;;;;;;;-3.36;95.72;99766.08;1674548;85;20598;-72
2021/03/06 01:01:59;;;;;;;;;;;;;;;-3.36;97.04;99777.40;1703836;84;20117;-73
2021/03/06 01:04:27;;;;;;;;;;;;;;;-3.44;99.39;99783.94;1673996;85;20223;-72
2021/03/06 01:06:55;;;;;;;;;;;;;;;-3.52;97.64;99782.59;1703662;84;20240;-72
2021/03/06 01:09:23;;;;;;;;;;;;;;;-3.59;98.66;99786.33;1703787;84;21832;-73
2021/03/06 01:11:51;;;;;;;;;;;;;;;-3.73;98.15;99786.41;1703818;84;20572;-73
2021/03/06 01:14:18;;;;;;;;;;;;;;;-3.85;99.86;99791.58;1703773;84;20228;-72
2021/03/06 01:16:46;;;;;;;;;;;;;;;-3.93;99.67;99787.12;1703696;84;20256;-72
2021/03/06 01:19:14;;;;;;;;;;;;;;;-3.96;99.67;99791.37;1661186;86;20313;-72
2021/03/06 01:21:41;;;;;;;;;;;;;;;-3.91;100.00;99792.22;1678629;85;21198;-72
2021/03/06 01:24:12;;;;;;;;;;;;;;;-3.96;100.00;99790.55;1674228;85;20229;-72
2021/03/06 01:26:39;;;;;;;;;;;;;;;-4.03;100.00;99789.52;1694229;84;20525;-72
2021/03/06 01:29:07;;;;;;;;;;;;;;;-4.01;98.92;99792.31;1694341;84;21073;-73
2021/03/06 01:31:36;;;;;;;;;;;;;;;-4.00;99.81;99795.76;1694240;84;20246;-72
2021/03/06 01:34:04;;;;;;;;;;;;;;;-4.11;99.78;99796.84;1694128;84;21674;-72
2021/03/06 01:36:32;;;;;;;;;;;;;;;-4.14;99.77;99794.50;1694184;84;20246;-72
2021/03/06 01:39:01;;;;;;;;;;;;;;;-4.17;100.00;99796.94;1694314;84;20246;-72
2021/03/06 01:41:31;;;;;;;;;;;;;;;-4.22;100.00;99797.89;1694368;84;20217;-73
2021/03/06 01:44:01;;;;;;;;;;;;;;;-4.28;100.00;99798.52;1694409;84;20217;-72
2021/03/06 01:46:29;;;;;;;;;;;;;;;-4.15;100.00;99805.48;1694302;84;20984;-72
2021/03/06 01:49:00;;;;;;;;;;;;;;;-4.16;100.00;99806.47;1694288;84;20188;-72
2021/03/06 01:51:29;;;;;;;;;;;;;;;-4.13;99.18;99806.16;1694316;84;20178;-72
2021/03/06 01:53:57;;;;;;;;;;;;;;;-4.10;98.91;99807.16;1695113;84;20166;-72
2021/03/06 01:56:25;;;;;;;;;;;;;;;-4.09;99.73;99811.94;1697851;84;20217;-72
2021/03/06 01:58:54;;;;;;;;;;;;;;;-4.14;100.00;99810.23;1674396;84;21674;-72
2021/03/06 02:01:21;;;;;;;;;;;;;;;-4.21;100.00;99819.70;1697763;84;20159;-72
2021/03/06 02:03:50;;;;;;;;;;;;;;;-4.24;100.00;99824.73;1697855;84;20500;-72
2021/03/06 02:06:18;;;;;;;;;;;;;;;-4.29;100.00;99826.98;1674180;84;20513;-72
2021/03/06 02:08:47;;;;;;;;;;;;;;;-4.37;100.00;99831.68;1697486;84;20152;-71
2021/03/06 02:11:38;;;;;;;;;;;;;;;-4.42;100.00;99825.25;1697454;84;22690;-72
2021/03/06 02:14:13;;;;;;;;;;;;;;;-4.52;100.00;99835.31;1697516;84;20530;-71
2021/03/06 02:16:42;;;;;;;;;;;;;;;-4.50;100.00;99841.73;1697016;84;20229;-71
2021/03/06 02:19:40;;;;;;;;;;;;;;;-4.47;100.00;99843.22;1697323;84;20789;-71
2021/03/06 02:22:27;;;;;;;;;;;;;;;-4.44;100.00;99838.49;1696711;84;20230;-72
2021/03/06 02:25:25;;;;;;;;;;;;;;;-4.41;100.00;99839.98;1683818;84;21382;-71
2021/03/06 02:28:10;;;;;;;;;;;;;;;-4.44;100.00;99850.28;1697256;84;20242;-72
2021/03/06 02:30:38;;;;;;;;;;;;;;;-4.47;100.00;99849.77;1696993;84;20266;-71
2021/03/06 02:33:09;;;;;;;;;;;;;;;-4.50;100.00;99851.39;1697181;84;20158;-71
2021/03/06 02:35:36;;;;;;;;;;;;;;;-4.56;100.00;99851.02;1697326;84;20229;-72
2021/03/06 02:38:09;;;;;;;;;;;;;;;-4.65;100.00;99858.94;1697296;84;21213;-71
2021/03/06 02:40:37;;;;;;;;;;;;;;;-4.71;100.00;99862.14;1697334;84;21018;-71
2021/03/06 02:43:06;;;;;;;;;;;;;;;-4.76;100.00;99858.64;1697322;84;20126;-72
2021/03/06 02:45:36;;;;;;;;;;;;;;;-4.84;100.00;99863.80;1697276;84;20261;-71
2021/03/06 02:48:06;;;;;;;;;;;;;;;-4.90;100.00;99864.37;1697251;84;20539;-71
2021/03/06 02:50:34;;;;;;;;;;;;;;;-4.86;100.00;99867.05;1697300;84;21208;-71
2021/03/06 02:53:02;;;;;;;;;;;;;;;-4.81;100.00;99870.05;1697233;84;20259;-71
2021/03/06 02:55:32;;;;;;;;;;;;;;;-4.82;100.00;99869.72;1689057;84;20233;-71
2021/03/06 02:58:15;;;;;;;;;;;;;;;-4.86;100.00;99877.52;1689010;85;20225;-72
2021/03/06 03:01:02;;;;;;;;;;;;;;;-4.89;100.00;99881.26;1689127;85;20221;-71
2021/03/06 03:03:49;;;;;;;;;;;;;;;-4.91;100.00;99875.83;1689130;85;21808;-71
2021/03/06 03:06:26;;;;;;;;;;;;;;;-4.94;100.00;99881.37;1688971;85;20119;-71
2021/03/06 03:09:00;;;;;;;;;;;;;;;-4.91;100.00;99891.54;1689033;85;20272;-71
2021/03/06 03:12:00;;;;;;;;;;;;;;;-4.93;100.00;99890.36;1676047;85;20230;-71
2021/03/06 03:14:37;;;;;;;;;;;;;;;-4.89;100.00;99896.15;1678665;85;20250;-72
2021/03/06 03:17:09;;;;;;;;;;;;;;;-4.88;100.00;99897.79;1611414;89;21931;-71
2021/03/06 03:19:56;;;;;;;;;;;;;;;-4.88;100.00;99894.68;1611366;89;20256;-72
2021/03/06 03:22:27;;;;;;;;;;;;;;;-4.88;100.00;99890.75;1611436;89;20212;-72
2021/03/06 03:24:55;;;;;;;;;;;;;;;-4.89;100.00;99893.53;1611575;89;20971;-71
2021/03/06 03:27:23;;;;;;;;;;;;;;;-4.92;100.00;99899.03;1611461;89;20250;-71
2021/03/06 03:29:50;;;;;;;;;;;;;;;-4.89;100.00;99903.52;1611486;89;21862;-71
2021/03/06 03:32:18;;;;;;;;;;;;;;;-4.89;100.00;99909.25;1611436;89;20240;-71
2021/03/06 03:34:46;;;;;;;;;;;;;;;-4.89;100.00;99907.44;1611408;89;20259;-72
2021/03/06 03:37:14;;;;;;;;;;;;;;;-4.93;100.00;99914.42;1611509;89;20630;-71
2021/03/06 03:39:42;;;;;;;;;;;;;;;-4.99;100.00;99906.67;1611461;89;20248;-71
2021/03/06 03:42:10;;;;;;;;;;;;;;;-5.00;100.00;99911.55;1622579;88;22221;-71
2021/03/06 03:44:38;;;;;;;;;;;;;;;-4.99;100.00;99911.91;1607377;89;20269;-71
2021/03/06 03:47:07;;;;;;;;;;;;;;;-4.90;100.00;99918.90;1622518;88;20176;-72
2021/03/06 03:49:36;;;;;;;;;;;;;;;-4.89;100.00;99913.17;1607496;89;20285;-71
2021/03/06 03:52:04;;;;;;;;;;;;;;;-4.85;100.00;99919.75;1622631;88;20274;-72
2021/03/06 03:54:32;;;;;;;;;;;;;;;-4.88;100.00;99918.73;1659224;84;21220;-71
2021/03/06 03:57:03;;;;;;;;;;;;;;;-5.03;100.00;99916.59;1641108;85;20222;-72
2021/03/06 03:59:32;;;;;;;;;;;;;;;-5.07;100.00;99920.48;1685795;85;20226;-71
2021/03/06 04:01:59;;;;;;;;;;;;;;;-5.12;100.00;99915.31;1685873;85;20717;-71
2021/03/06 04:04:31;;;;;;;;;;;;;;;-5.16;100.00;99916.10;1685878;85;20246;-71
2021/03/06 04:07:00;;;;;;;;;;;;;;;-5.22;100.00;99918.82;1685790;85;21012;-71
2021/03/06 04:09:31;;;;;;;;;;;;;;;-5.26;100.00;99914.02;1685746;84;20158;-71
2021/03/06 04:12:00;;;;;;;;;;;;;;;-5.29;100.00;99911.66;1685818;84;20512;-71
2021/03/06 04:14:27;;;;;;;;;;;;;;;-5.29;100.00;99914.27;1685874;85;20766;-71
2021/03/06 04:16:56;;;;;;;;;;;;;;;-5.34;100.00;99918.66;1685815;85;20258;-72
2021/03/06 04:19:24;;;;;;;;;;;;;;;-5.36;100.00;99920.58;1685894;85;22690;-72
2021/03/06 04:21:52;;;;;;;;;;;;;;;-5.32;100.00;99926.34;1685779;84;20568;-72
2021/03/06 04:24:20;;;;;;;;;;;;;;;-5.28;100.00;99932.95;1685791;85;20142;-72
2021/03/06 04:26:50;;;;;;;;;;;;;;;-5.27;100.00;99930.66;1685753;85;20226;-72
2021/03/06 04:29:20;;;;;;;;;;;;;;;-5.29;100.00;99928.66;1685856;85;20167;-72
2021/03/06 04:31:48;;;;;;;;;;;;;;;-5.26;100.00;99933.64;1685756;84;21202;-72
2021/03/06 04:34:16;;;;;;;;;;;;;;;-5.26;100.00;99934.95;1685697;85;20150;-72
2021/03/06 04:36:44;;;;;;;;;;;;;;;-5.27;100.00;99936.71;1685829;84;20205;-72
2021/03/06 04:39:12;;;;;;;;;;;;;;;-5.25;100.00;99943.13;1662410;85;20171;-72
2021/03/06 04:41:40;;;;;;;;;;;;;;;-5.24;100.00;99944.30;1685846;85;20218;-72
2021/03/06 04:44:08;;;;;;;;;;;;;;;-5.32;100.00;99944.17;1685827;85;21272;-72
2021/03/06 04:46:36;;;;;;;;;;;;;;;-5.32;100.00;99945.97;1685747;85;20242;-72
2021/03/06 04:49:05;;;;;;;;;;;;;;;-5.29;100.00;99945.67;1685849;85;20582;-72
2021/03/06 04:51:33;;;;;;;;;;;;;;;-5.29;100.00;99946.98;1685870;85;20521;-72
2021/03/06 04:54:01;;;;;;;;;;;;;;;-5.23;100.00;99944.62;1685741;85;20500;-72
2021/03/06 04:56:31;;;;;;;;;;;;;;;-5.22;100.00;99950.22;1693902;84;21450;-72
2021/03/06 04:58:59;;;;;;;;;;;;;;;-5.07;100.00;99947.97;1694328;84;20619;-72
2021/03/06 05:01:27;;;;;;;;;;;;;;;-4.99;100.00;99949.38;1694147;84;20150;-71
2021/03/06 05:03:54;;;;;;;;;;;;;;;-4.77;100.00;99955.22;1694740;84;20241;-72
2021/03/06 05:06:24;;;;;;;;;;;;;;;-4.61;100.00;99957.20;1709675;82;20314;-71
2021/03/06 05:08:52;;;;;;;;;;;;;;;-4.43;100.00;99963.81;1710408;84;21819;-72
2021/03/06 05:11:21;;;;;;;;;;;;;;;-4.32;100.00;99961.78;1695126;84;20504;-72
2021/03/06 05:13:49;;;;;;;;;;;;;;;-4.26;100.00;99968.25;1694207;84;20142;-72
2021/03/06 05:16:17;;;;;;;;;;;;;;;-4.11;100.00;99979.88;1694304;84;20152;-72
2021/03/06 05:18:45;;;;;;;;;;;;;;;-4.03;100.00;99980.92;1694451;84;20508;-72
2021/03/06 05:21:13;;;;;;;;;;;;;;;-4.10;100.00;99973.64;1694402;84;21834;-72
2021/03/06 05:23:41;;;;;;;;;;;;;;;-3.95;100.00;99983.62;1694387;84;20512;-72
2021/03/06 05:26:09;;;;;;;;;;;;;;;-3.82;100.00;99981.92;1694369;84;20496;-72
2021/03/06 05:28:37;;;;;;;;;;;;;;;-3.77;99.88;99981.83;1694304;84;20253;-72
2021/03/06 05:31:06;;;;;;;;;;;;;;;-3.59;99.89;99991.00;1709188;84;20299;-72
2021/03/06 05:33:34;;;;;;;;;;;;;;;-3.63;97.28;99994.07;1709700;84;21822;-72
2021/03/06 05:36:02;;;;;;;;;;;;;;;-3.53;96.61;99994.34;1694244;84;20138;-72
2021/03/06 05:38:31;;;;;;;;;;;;;;;-3.40;96.70;99995.75;1694380;84;20154;-72
2021/03/06 05:40:59;;;;;;;;;;;;;;;-3.36;94.86;99997.07;1694314;84;20233;-72
2021/03/06 05:43:26;;;;;;;;;;;;;;;-3.21;95.40;100002.09;1658799;86;20516;-72
2021/03/06 05:45:54;;;;;;;;;;;;;;;-3.21;95.14;99999.96;1669763;86;21224;-72
2021/03/06 05:48:23;;;;;;;;;;;;;;;-3.27;92.45;100000.91;1670529;86;20507;-71
2021/03/06 05:50:52;;;;;;;;;;;;;;;-3.02;94.35;100003.70;1670495;86;20487;-72
2021/03/06 05:53:21;;;;;;;;;;;;;;;-2.98;91.33;100008.99;1670280;86;20315;-73
2021/03/06 05:55:52;;;;;;;;;;;;;;;-2.99;90.32;100010.45;1670285;85;20253;-72
2021/03/06 05:58:21;;;;;;;;;;;;;;;-3.05;87.35;100017.97;1670222;86;21219;-72
2021/03/06 06:00:49;;;;;;;;;;;;;;;-2.92;88.35;100025.43;1670384;86;20164;-72
2021/03/06 06:03:22;;;;;;;;;;;;;;;-2.74;89.02;100030.65;1642041;86;20287;-72
2021/03/06 06:05:52;;;;;;;;;;;;;;;-2.71;89.22;100030.33;1670431;86;20212;-73
2021/03/06 06:08:20;;;;;;;;;;;;;;;-2.58;89.72;100039.09;1670381;86;20220;-72
2021/03/06 06:10:50;;;;;;;;;;;;;;;-2.56;87.39;100048.97;1641677;86;20164;-73
2021/03/06 06:13:20;;;;;;;;;;;;;;;-2.50;85.86;100052.30;1670173;86;20200;-73
2021/03/06 06:15:51;;;;;;;;;;;;;;;-2.55;85.25;100050.59;1670231;86;20511;-73
2021/03/06 06:18:20;;;;;;;;;;;;;;;-2.30;86.03;100062.08;1642580;86;20554;-73
2021/03/06 06:20:49;;;;;;;;;;;;;;;-2.25;87.09;100052.41;1669986;86;20675;-73
2021/03/06 06:23:19;;;;;;;;;;;;;;;-2.28;85.29;100068.48;1670151;86;22214;-74
2021/03/06 06:25:49;;;;;;;;;;;;;;;-2.28;84.59;100071.95;1670267;86;20136;-73
2021/03/06 06:28:20;;;;;;;;;;;;;;;-1.98;88.68;100071.08;1669879;86;20512;-73
2021/03/06 06:31:09;;;;;;;;;;;;;;;-1.85;89.01;100072.75;1673620;84;20318;-73
2021/03/06 06:33:41;;;;;;;;;;;;;;;-1.76;82.17;100078.86;1686023;84;20226;-72
2021/03/06 06:36:14;;;;;;;;;;;;;;;-1.80;80.65;100070.95;1693091;84;20709;-72
2021/03/06 06:38:45;;;;;;;;;;;;;;;-1.73;83.31;100075.91;1663967;84;20252;-73
2021/03/06 06:41:15;;;;;;;;;;;;;;;-1.61;80.09;100077.74;1680052;84;20285;-72
2021/03/06 06:43:43;;;;;;;;;;;;;;;-1.50;80.32;100076.09;1695352;84;20530;-70
2021/03/06 06:46:29;;;;;;;;;;;;;;;-1.47;77.19;100081.53;1706357;84;20361;-71
2021/03/06 06:48:59;;;;;;;;;;;;;;;-1.45;78.08;100076.93;1703909;83;21160;-72
2021/03/06 06:51:30;;;;;;;;;;;;;;;-1.50;75.94;100093.21;1692006;84;20157;-72
2021/03/06 06:54:13;;;;;;;;;;;;;;;-1.33;76.30;100095.38;1696986;84;20224;-72
2021/03/06 06:56:43;;;;;;;;;;;;;;;-1.37;74.26;100088.78;1701167;83;20817;-72
2021/03/06 06:59:12;;;;;;;;;;;;;;;-1.28;73.92;100095.70;1705680;83;20233;-72
2021/03/06 07:01:41;;;;;;;;;;;;;;;-1.06;75.49;100095.55;1695529;84;21225;-72
2021/03/06 07:04:13;;;;;;;;;;;;;;;-0.90;75.51;100099.51;1693277;84;20231;-72
2021/03/06 07:06:45;;;;;;;;;;;;;;;-1.00;71.23;100098.86;1698552;84;20232;-73
2021/03/06 07:09:14;;;;;;;;;;;;;;;-1.12;71.19;100095.72;1672602;84;20711;-71
2021/03/06 07:11:46;;;;;;;;;;;;;;;-1.18;73.16;100096.86;1697837;84;20234;-72
2021/03/06 07:14:36;;;;;;;;;;;;;;;-0.89;73.50;100098.50;1703363;84;21720;-72
2021/03/06 07:17:04;;;;;;;;;;;;;;;-0.96;69.90;100091.43;1691272;84;20283;-72
2021/03/06 07:19:33;;;;;;;;;;;;;;;-1.10;68.48;100095.57;1681885;84;20489;-73
2021/03/06 07:22:05;;;;;;;;;;;;;;;-0.92;70.99;100099.34;1647910;85;20258;-71
2021/03/06 07:24:35;;;;;;;;;;;;;;;-0.88;69.73;100101.48;1692323;84;20284;-72
2021/03/06 07:27:29;;;;;;;;;;;;;;;-0.67;70.00;100100.13;1700677;83;21230;-72
2021/03/06 07:29:57;;;;;;;;;;;;;;;-0.61;69.18;100102.12;1697444;84;20233;-73
2021/03/06 07:32:31;;;;;;;;;;;;;;;-0.52;71.03;100101.59;1705686;84;20232;-73
2021/03/06 07:35:03;;;;;;;;;;;;;;;-0.34;70.47;100101.37;1662026;85;20262;-72
2021/03/06 07:37:32;;;;;;;;;;;;;;;-0.16;68.46;100105.13;1677174;84;20239;-72
2021/03/06 07:40:02;;;;;;;;;;;;;;;-0.11;66.11;100108.08;1672281;86;21400;-72
2021/03/06 07:42:47;;;;;;;;;;;;;;;-0.37;64.13;100113.59;1650911;85;20234;-73
2021/03/06 07:45:19;;;;;;;;;;;;;;;-0.33;64.92;100113.59;1676303;84;20303;-72
2021/03/06 07:47:51;;;;;;;;;;;;;;;-0.30;66.00;100103.50;1669569;85;20232;-71
2021/03/06 07:50:27;;;;;;;;;;;;;;;-0.01;65.51;100102.91;1646380;86;20251;-71
2021/03/06 07:52:59;;;;;;;;;;;;;;;-0.01;63.14;100099.45;1646202;85;22230;-73
2021/03/06 07:55:28;;;;;;;;;;;;;;;0.09;61.97;100106.66;1629516;84;20281;-72
2021/03/06 07:58:12;;;;;;;;;;;;;;;0.33;60.86;100100.94;1654110;84;20368;-73
2021/03/06 08:00:58;;;;;;;;;;;;;;;0.25;58.58;100104.45;1708358;84;20291;-71
2021/03/06 08:03:34;;;;;;;;;;;;;;;0.38;58.32;100101.23;1702173;84;20278;-71
2021/03/06 08:06:06;;;;;;;;;;;;;;;0.58;57.35;100107.70;1701912;84;21196;-72
2021/03/06 08:08:46;;;;;;;;;;;;;;;0.52;53.98;100103.64;1686370;83;20149;-73
2021/03/06 08:11:19;;;;;;;;;;;;;;;0.38;54.59;100108.66;1700674;84;20233;-72
2021/03/06 08:13:52;;;;;;;;;;;;;;;0.48;55.08;100099.70;1677403;85;20282;-72
2021/03/06 08:16:30;;;;;;;;;;;;;;;0.67;55.59;100109.81;1672468;86;20541;-72
2021/03/06 08:19:02;;;;;;;;;;;;;;;0.76;52.52;100111.87;1643479;87;21671;-71
2021/03/06 08:21:43;;;;;;;;;;;;;;;0.53;54.72;100102.13;1672115;86;20260;-72
2021/03/06 08:24:21;;;;;;;;;;;;;;;0.67;53.40;100092.64;1686459;85;20290;-72
2021/03/06 08:27:09;;;;;;;;;;;;;;;0.96;50.04;100101.68;1693322;84;20632;-71
2021/03/06 08:29:40;;;;;;;;;;;;;;;0.95;52.05;100107.95;1692645;84;20245;-72
2021/03/06 08:32:34;;;;;;;;;;;;;;;1.07;51.57;100102.05;1659654;85;21153;-72
2021/03/06 08:35:32;;;;;;;;;;;;;;;1.09;47.84;100109.82;1656606;85;20240;-71
2021/03/06 08:38:03;;;;;;;;;;;;;;;0.96;47.72;100097.72;1663990;86;20245;-72
2021/03/06 08:40:31;;;;;;;;;;;;;;;0.92;47.21;100095.09;1662019;86;20255;-72
2021/03/06 08:42:59;;;;;;;;;;;;;;;1.04;47.38;100087.87;1662111;86;20524;-73
2021/03/06 08:45:28;;;;;;;;;;;;;;;1.11;48.09;100084.53;1662051;86;21225;-72
2021/03/06 08:48:01;;;;;;;;;;;;;;;1.22;47.34;100096.80;1662619;85;20313;-74
2021/03/06 08:50:36;;;;;;;;;;;;;;;1.33;48.10;100095.56;1841575;76;20258;-72
2021/03/06 08:53:07;;;;;;;;;;;;;;;1.18;47.89;100093.39;1834210;77;20149;-71
2021/03/06 08:55:44;;;;;;;;;;;;;;;1.42;48.18;100093.16;1858468;77;22094;-72
2021/03/06 08:58:13;;;;;;;;;;;;;;;1.42;46.19;100095.80;1829697;77;20231;-74
2021/03/06 09:00:44;;;;;;;;;;;;;;;1.60;48.22;100099.41;1824554;78;20156;-71
2021/03/06 09:03:24;;;;;;;;;;;;;;;1.38;46.85;100093.70;1824638;78;20148;-74
2021/03/06 09:05:54;;;;;;;;;;;;;;;1.59;47.16;100095.62;1824951;78;20519;-74
2021/03/06 09:08:25;;;;;;;;;;;;;;;1.77;47.82;100104.54;1824754;78;20511;-77
2021/03/06 09:10:59;;;;;;;;;;;;;;;1.52;44.89;100091.57;1824511;78;20221;-74
2021/03/06 09:13:31;;;;;;;;;;;;;;;1.81;47.62;100109.25;1840409;77;20126;-74
2021/03/06 09:16:00;;;;;;;;;;;;;;;2.04;46.71;100105.70;1858478;77;20177;-73
2021/03/06 09:18:34;;;;;;;;;;;;;;;1.84;45.06;100103.62;1858364;77;20380;-73
2021/03/06 09:21:09;;;;;;;;;;;;;;;1.49;45.31;100094.56;1857978;77;21800;-73
2021/03/06 09:23:39;;;;;;;;;;;;;;;1.84;46.40;100106.77;1852836;77;20130;-73
2021/03/06 09:26:16;;;;;;;;;;;;;;;2.08;45.89;100113.10;1857963;77;20150;-73
2021/03/06 09:28:46;;;;;;;;;;;;;;;2.54;45.59;100108.82;1825175;77;20738;-73
2021/03/06 09:31:27;;;;;;;;;;;;;;;2.72;45.24;100111.55;1777448;80;20230;-74
2021/03/06 09:33:56;;;;;;;;;;;;;;;2.40;44.39;100100.91;1777405;80;22411;-73
2021/03/06 09:36:29;;;;;;;;;;;;;;;2.18;42.37;100104.87;1777417;80;20171;-72
2021/03/06 09:39:00;;;;;;;;;;;;;;;2.21;42.80;100092.57;1777435;80;20318;-73
2021/03/06 09:41:31;;;;;;;;;;;;;;;2.33;43.64;100106.97;1777633;80;20525;-73
2021/03/06 09:44:00;;;;;;;;;;;;;;;2.68;43.45;100109.78;1777459;80;20334;-74
2021/03/06 09:46:31;;;;;;;;;;;;;;;2.60;40.87;100100.64;1777370;80;21196;-74
2021/03/06 09:49:00;;;;;;;;;;;;;;;2.66;41.49;100108.34;1775694;80;20314;-73
2021/03/06 09:51:43;;;;;;;;;;;;;;;2.28;41.92;100107.20;1771964;81;20416;-73
2021/03/06 09:54:15;;;;;;;;;;;;;;;2.91;40.74;100106.94;1772155;81;20514;-72
2021/03/06 09:56:56;;;;;;;;;;;;;;;3.22;41.21;100092.01;1772310;81;20538;-73
2021/03/06 09:59:35;;;;;;;;;;;;;;;3.05;41.80;100092.48;1772299;81;21659;-73
2021/03/06 10:06:10;;;;;;;;;;;;;;;2.58;41.68;100092.87;1851349;77;20170;-74
2021/03/06 10:09:04;;;;;;;;;;;;;;;3.36;41.58;100098.24;1820471;77;20193;-74
2021/03/06 10:11:39;;;;;;;;;;;;;;;3.36;41.67;100088.14;1827060;77;20217;-73
2021/03/06 10:14:45;;;;;;;;;;;;;;;3.36;43.21;100096.92;1854877;77;21187;-73
2021/03/06 10:17:48;;;;;;;;;;;;;;;3.28;40.53;100089.59;1854895;77;20225;-74
2021/03/06 10:20:27;;;;;;;;;;;;;;;3.91;40.88;100085.08;1830318;77;20550;-70
2021/03/06 10:22:59;;;;;;;;;;;;;;;3.91;41.91;100086.41;1815449;78;20212;-73
2021/03/06 10:25:34;;;;;;;;;;;;;;;3.22;39.70;100092.52;1815413;79;20152;-73
2021/03/06 10:28:15;;;;;;;;;;;;;;;3.40;40.97;100084.87;1821826;77;22146;-74
2021/03/06 10:30:43;;;;;;;;;;;;;;;3.64;40.78;100089.43;1834792;77;20200;-73
2021/03/06 10:33:22;;;;;;;;;;;;;;;4.04;41.51;100081.17;1837040;77;20479;-73
2021/03/06 10:35:56;;;;;;;;;;;;;;;3.41;39.62;100089.70;1826014;77;20491;-74
2021/03/06 10:38:30;;;;;;;;;;;;;;;2.71;41.30;100071.48;1804034;78;20157;-73
2021/03/06 10:41:00;;;;;;;;;;;;;;;3.28;41.46;100079.80;1788574;80;22317;-76
2021/03/06 10:43:41;;;;;;;;;;;;;;;2.75;41.48;100063.47;1801649;78;20226;-74
2021/03/06 10:46:14;;;;;;;;;;;;;;;2.37;43.82;100072.97;1799869;78;20138;-74
2021/03/06 10:48:57;;;;;;;;;;;;;;;1.98;45.30;100076.80;1798552;78;20253;-74
2021/03/06 10:51:52;;;;;;;;;;;;;;;2.22;46.54;100073.52;1782188;79;20160;-72
2021/03/06 10:54:24;;;;;;;;;;;;;;;1.71;47.49;100065.05;1791940;79;21197;-73
2021/03/06 10:57:08;;;;;;;;;;;;;;;1.75;49.12;100067.66;1774581;81;20115;-73
2021/03/06 10:59:38;;;;;;;;;;;;;;;1.29;48.62;100065.98;1786965;79;20494;-72
2021/03/06 11:02:25;;;;;;;;;;;;;;;1.31;48.83;100067.14;1793244;79;20195;-73
2021/03/06 11:04:55;;;;;;;;;;;;;;;1.40;50.55;100064.73;1785902;79;20280;-73
2021/03/06 11:07:33;;;;;;;;;;;;;;;2.35;48.85;100057.28;1783283;80;20149;-75
2021/03/06 11:10:07;;;;;;;;;;;;;;;1.96;48.86;100062.09;1783695;80;20500;-72
2021/03/06 11:12:57;;;;;;;;;;;;;;;1.56;49.14;100056.30;1783550;80;20137;-75
2021/03/06 11:15:35;;;;;;;;;;;;;;;1.34;51.07;100061.48;1783499;80;20237;-73
2021/03/06 11:18:13;;;;;;;;;;;;;;;1.12;52.77;100053.93;1783694;80;20240;-74
2021/03/06 11:21:03;;;;;;;;;;;;;;;1.48;53.32;100043.48;1783915;80;21377;-74
2021/03/06 11:23:44;;;;;;;;;;;;;;;1.65;52.92;100053.38;1758266;79;20642;-74
2021/03/06 11:26:15;;;;;;;;;;;;;;;1.88;49.90;100041.34;1783783;80;20226;-71
2021/03/06 11:28:54;;;;;;;;;;;;;;;1.89;50.42;100031.59;1780185;79;20121;-74
2021/03/06 11:31:24;;;;;;;;;;;;;;;1.80;52.39;100052.04;1783619;80;20118;-74
2021/03/06 11:33:55;;;;;;;;;;;;;;;1.34;54.44;100047.44;1783719;80;22063;-76
2021/03/06 11:36:37;;;;;;;;;;;;;;;1.52;56.71;100050.56;1783653;80;20109;-75
2021/03/06 11:39:07;;;;;;;;;;;;;;;1.06;61.21;100040.94;1770373;80;20578;-72
2021/03/06 11:41:35;;;;;;;;;;;;;;;0.77;66.75;100046.16;1783660;80;20133;-73
2021/03/06 11:44:04;;;;;;;;;;;;;;;0.56;70.85;100048.94;1783087;80;20241;-75
2021/03/06 11:46:36;;;;;;;;;;;;;;;0.56;75.49;100052.91;1783811;80;20546;-73
2021/03/06 11:49:05;;;;;;;;;;;;;;;0.91;75.40;100056.43;1783459;79;20217;-73
2021/03/06 11:51:33;;;;;;;;;;;;;;;1.39;73.61;100047.20;1783395;80;20109;-72
2021/03/06 11:54:02;;;;;;;;;;;;;;;1.77;70.15;100051.60;1783717;80;20907;-73
2021/03/06 11:56:30;;;;;;;;;;;;;;;2.04;66.29;100054.07;1783739;79;20138;-73
2021/03/06 11:58:58;;;;;;;;;;;;;;;1.85;68.08;100057.59;1783660;80;21200;-75
2021/03/06 12:01:28;;;;;;;;;;;;;;;1.78;64.59;100051.91;1783562;80;20203;-71
2021/03/06 12:03:57;;;;;;;;;;;;;;;1.77;56.98;100059.55;1783504;80;20109;-71
2021/03/06 12:06:28;;;;;;;;;;;;;;;1.97;57.67;100061.11;1783324;80;20137;-72
2021/03/06 12:08:57;;;;;;;;;;;;;;;1.69;62.69;100063.08;1783703;80;20141;-71
2021/03/06 12:11:27;;;;;;;;;;;;;;;1.89;67.14;100060.72;1783645;80;22103;-71
2021/03/06 12:13:58;;;;;;;;;;;;;;;2.20;66.14;100049.05;1772755;80;20117;-72
2021/03/06 12:16:28;;;;;;;;;;;;;;;2.18;65.40;100052.38;1783850;80;20519;-72
2021/03/06 12:19:04;;;;;;;;;;;;;;;1.70;69.21;100057.61;1778089;80;20237;-71
2021/03/06 12:21:34;;;;;;;;;;;;;;;1.96;61.12;100055.48;1783873;80;20126;-72
2021/03/06 12:24:04;;;;;;;;;;;;;;;1.52;60.71;100052.36;1783898;80;21663;-72
2021/03/06 12:26:32;;;;;;;;;;;;;;;1.12;62.84;100053.11;1783583;80;20500;-70
2021/03/06 12:29:03;;;;;;;;;;;;;;;0.87;63.43;100051.20;1783263;79;20157;-71
2021/03/06 12:31:31;;;;;;;;;;;;;;;0.98;63.66;100046.31;1794217;79;20159;-71
2021/03/06 12:34:06;;;;;;;;;;;;;;;1.40;65.29;100059.95;1798102;79;20195;-73
2021/03/06 12:36:36;;;;;;;;;;;;;;;2.31;63.30;100059.16;1775467;79;22476;-72
2021/03/06 12:39:05;;;;;;;;;;;;;;;2.98;61.79;100057.95;1777491;79;20232;-72
2021/03/06 12:41:33;;;;;;;;;;;;;;;2.18;62.86;100059.84;1799309;79;20133;-71
2021/03/06 12:44:03;;;;;;;;;;;;;;;3.15;59.27;100060.63;1812819;79;20137;-73
2021/03/06 12:46:31;;;;;;;;;;;;;;;3.84;56.62;100057.67;1797738;79;20227;-72
2021/03/06 12:48:59;;;;;;;;;;;;;;;3.51;52.45;100057.52;1774744;80;21819;-72
2021/03/06 12:51:30;;;;;;;;;;;;;;;3.18;55.21;100050.95;1781994;79;20144;-72
2021/03/06 12:53:58;;;;;;;;;;;;;;;2.76;56.97;100063.27;1783120;79;20151;-73
2021/03/06 12:56:28;;;;;;;;;;;;;;;1.91;57.88;100065.30;1783345;79;20143;-71
2021/03/06 12:58:56;;;;;;;;;;;;;;;1.77;56.47;100070.13;1783382;79;20123;-72
2021/03/06 13:01:25;;;;;;;;;;;;;;;1.33;56.23;100066.97;1783322;79;21656;-71
2021/03/06 13:03:54;;;;;;;;;;;;;;;0.92;60.48;100076.59;1783205;80;20152;-73
2021/03/06 13:06:23;;;;;;;;;;;;;;;0.41;67.51;100074.47;1783168;80;20533;-72
2021/03/06 13:08:51;;;;;;;;;;;;;;;0.60;71.51;100080.63;1783385;80;20222;-74
2021/03/06 13:11:20;;;;;;;;;;;;;;;-0.12;99.59;100074.74;1783145;79;20187;-73